Time;durP1;ratioP1;P1;durP2;ratioP2;P2;SDS_P1;SDS_P2;PMS_P1;PMS_P2;Temp;Humidity;BMP_temperature;BMP_pressure;BME280_temperature;BME280_humidity;BME280_pressure;Samples;Min_cycle;Max_cycle;Signal;HPM_P1;HPM_P2
2023/10/31 00:01:30;;;;;;;1.63;0.40;;;;;;;15.97;100.00;99444.00;5080131;28;20470;-65
2023/10/31 00:03:55;;;;;;;2.70;0.10;;;;;;;15.94;100.00;99426.03;5088452;28;20366;-65
2023/10/31 00:06:21;;;;;;;2.05;0.30;;;;;;;15.85;100.00;99385.22;5085690;28;20094;-66
2023/10/31 00:08:47;;;;;;;1.25;0.10;;;;;;;15.83;100.00;99376.72;5080628;28;20033;-67
2023/10/31 00:11:12;;;;;;;5.00;0.10;;;;;;;15.83;100.00;99377.53;5085815;28;20366;-67
2023/10/31 00:13:38;;;;;;;1.00;0.10;;;;;;;15.85;100.00;99395.72;5083384;28;20048;-68
2023/10/31 00:16:03;;;;;;;1.60;0.30;;;;;;;15.90;100.00;99412.47;5088250;28;20058;-67
2023/10/31 00:18:28;;;;;;;5.75;0.45;;;;;;;15.97;100.00;99407.22;5079435;28;20052;-67
2023/10/31 00:20:54;;;;;;;2.65;0.20;;;;;;;15.99;100.00;99405.19;5081486;28;20106;-67
2023/10/31 00:23:19;;;;;;;2.03;0.30;;;;;;;16.03;100.00;99398.53;5080518;28;20035;-67
2023/10/31 00:25:45;;;;;;;3.13;0.30;;;;;;;16.07;100.00;99404.19;5083831;28;20035;-67
2023/10/31 00:28:10;;;;;;;2.85;0.30;;;;;;;16.08;100.00;99393.44;5085370;28;20557;-68
2023/10/31 00:30:35;;;;;;;1.95;0.40;;;;;;;16.07;100.00;99410.22;5083229;28;20090;-67
2023/10/31 00:33:01;;;;;;;4.47;0.63;;;;;;;16.11;100.00;99403.53;5083578;28;20459;-66
2023/10/31 00:35:30;;;;;;;1.98;0.20;;;;;;;16.12;100.00;99389.38;5083564;28;20119;-67
2023/10/31 00:37:56;;;;;;;2.72;0.30;;;;;;;16.19;100.00;99381.47;5088160;28;20048;-68
2023/10/31 00:40:21;;;;;;;3.95;0.20;;;;;;;16.21;100.00;99374.19;5098345;28;20110;-67
2023/10/31 00:42:47;;;;;;;1.55;0.10;;;;;;;16.21;100.00;99363.69;5089386;28;20028;-68
2023/10/31 00:45:12;;;;;;;2.95;0.10;;;;;;;16.20;100.00;99369.97;5089060;28;20039;-67
2023/10/31 00:47:37;;;;;;;1.88;0.17;;;;;;;16.16;100.00;99361.69;5082795;28;20052;-67
2023/10/31 00:50:03;;;;;;;0.77;0.13;;;;;;;16.16;100.00;99366.13;5087666;28;20028;-67
2023/10/31 00:52:29;;;;;;;0.63;0.20;;;;;;;16.15;100.00;99370.56;5085907;28;20055;-68
2023/10/31 00:54:54;;;;;;;3.50;0.22;;;;;;;16.14;100.00;99368.16;5077383;28;20486;-68
2023/10/31 00:57:19;;;;;;;3.70;0.28;;;;;;;16.14;100.00;99365.53;5087539;28;21013;-68
2023/10/31 00:59:45;;;;;;;5.82;0.17;;;;;;;16.12;100.00;99376.25;5090077;28;20056;-67
2023/10/31 01:02:10;;;;;;;5.03;0.22;;;;;;;16.08;100.00;99377.66;5079794;28;20081;-67
2023/10/31 01:04:37;;;;;;;1.70;0.10;;;;;;;16.09;100.00;99381.91;5087902;28;20031;-68
2023/10/31 01:07:02;;;;;;;1.65;0.20;;;;;;;16.08;100.00;99375.03;5082151;28;20044;-67
2023/10/31 01:09:28;;;;;;;0.68;0.10;;;;;;;16.08;100.00;99377.66;5084500;28;20032;-68
2023/10/31 01:11:54;;;;;;;3.33;0.10;;;;;;;16.08;100.00;99380.28;5086511;28;20039;-67
2023/10/31 01:14:19;;;;;;;0.73;0.13;;;;;;;16.06;100.00;99389.44;5087263;28;20111;-68
2023/10/31 01:16:45;;;;;;;4.32;0.10;;;;;;;16.03;100.00;99397.72;5086683;28;20447;-68
2023/10/31 01:19:10;;;;;;;2.15;0.10;;;;;;;16.02;100.00;99402.16;5085637;28;20032;-68
2023/10/31 01:21:36;;;;;;;1.08;0.10;;;;;;;16.01;100.00;99407.63;5081683;28;20040;-68
2023/10/31 01:24:01;;;;;;;0.63;0.10;;;;;;;16.02;100.00;99401.34;5098537;28;20031;-68
2023/10/31 01:26:26;;;;;;;0.65;0.10;;;;;;;16.03;100.00;99395.09;5076748;28;20031;-68
2023/10/31 01:28:52;;;;;;;2.72;0.10;;;;;;;16.00;100.00;99393.69;5084129;28;20068;-67
2023/10/31 01:31:17;;;;;;;1.17;0.03;;;;;;;15.98;100.00;99389.63;5078262;28;20126;-66
2023/10/31 01:33:43;;;;;;;1.38;0.10;;;;;;;15.95;100.00;99387.41;5086900;28;26665;-67
2023/10/31 01:36:10;;;;;;;5.30;0.10;;;;;;;15.92;100.00;99380.75;5083301;28;20457;-67
2023/10/31 01:38:36;;;;;;;1.35;0.10;;;;;;;15.93;100.00;99387.63;5085874;28;20040;-67
2023/10/31 01:41:01;;;;;;;1.60;0.10;;;;;;;15.93;100.00;99393.69;5086638;28;20040;-67
2023/10/31 01:43:35;;;;;;;2.22;0.10;;;;;;;15.94;100.00;99389.25;5085938;28;20031;-67
2023/10/31 01:46:01;;;;;;;5.72;0.15;;;;;;;15.94;100.00;99384.00;5092045;28;20039;-67
2023/10/31 01:48:31;;;;;;;0.43;0.08;;;;;;;15.97;100.00;99383.56;5084196;28;20029;-66
2023/10/31 01:50:59;;;;;;;0.28;0.10;;;;;;;16.01;100.00;99384.78;5081742;28;20028;-67
2023/10/31 01:53:27;;;;;;;2.60;0.20;;;;;;;16.02;100.00;99386.41;5083179;28;20025;-67
2023/10/31 01:55:55;;;;;;;2.45;0.20;;;;;;;16.06;100.00;99392.84;5084898;28;20036;-68
2023/10/31 01:58:29;;;;;;;2.17;0.20;;;;;;;16.10;100.00;99383.53;5087604;28;20104;-68
2023/10/31 02:00:55;;;;;;;4.95;0.15;;;;;;;16.11;100.00;99390.41;5090177;28;20077;-68
2023/10/31 02:03:21;;;;;;;2.78;0.20;;;;;;;16.11;100.00;99385.13;5085841;28;20036;-68
2023/10/31 02:05:47;;;;;;;5.40;0.20;;;;;;;16.10;100.00;99388.78;5082169;28;20075;-67
2023/10/31 02:08:12;;;;;;;4.65;0.20;;;;;;;16.15;100.00;99381.09;5092938;28;20122;-67
2023/10/31 02:10:38;;;;;;;5.03;0.20;;;;;;;16.19;100.00;99371.78;5090639;28;20032;-67
2023/10/31 02:13:17;;;;;;;8.63;0.30;;;;;;;16.22;100.00;99375.81;5085278;28;20028;-67
2023/10/31 02:15:43;;;;;;;0.30;0.10;;;;;;;16.22;100.00;99371.38;5092622;28;20035;-67
2023/10/31 02:18:09;;;;;;;1.45;0.20;;;;;;;16.22;100.00;99366.09;5091112;28;20028;-67
2023/10/31 02:20:35;;;;;;;2.88;0.10;;;;;;;16.24;100.00;99368.53;5089465;28;20019;-67
2023/10/31 02:23:02;;;;;;;1.13;0.30;;;;;;;16.26;100.00;99359.44;5076521;28;20043;-67
2023/10/31 02:25:27;;;;;;;9.55;0.47;;;;;;;16.32;100.00;99360.41;5086601;28;20035;-67
2023/10/31 02:27:53;;;;;;;6.35;0.43;;;;;;;16.37;100.00;99351.91;5085622;28;20032;-67
2023/10/31 02:30:18;;;;;;;5.28;0.47;;;;;;;16.34;100.00;99355.75;5083483;28;20716;-67
2023/10/31 02:32:44;;;;;;;2.72;0.20;;;;;;;16.36;100.00;99352.94;5086908;28;20062;-68
2023/10/31 02:35:10;;;;;;;4.82;0.22;;;;;;;16.41;100.00;99353.91;5084697;28;20024;-67
2023/10/31 02:37:36;;;;;;;1.33;0.20;;;;;;;16.40;100.00;99352.31;5084740;28;20113;-68
2023/10/31 02:40:02;;;;;;;0.68;0.20;;;;;;;16.37;100.00;99354.53;5091069;28;20032;-67
2023/10/31 02:42:27;;;;;;;2.22;0.20;;;;;;;16.35;100.00;99353.94;5094881;28;20038;-67
2023/10/31 02:44:53;;;;;;;2.83;0.20;;;;;;;16.36;100.00;99360.81;5088121;28;20074;-67
2023/10/31 02:47:18;;;;;;;4.50;0.30;;;;;;;16.37;100.00;99362.44;5083858;28;20036;-67
2023/10/31 02:49:44;;;;;;;6.88;0.73;;;;;;;16.41;100.00;99363.63;5088293;28;20058;-67
2023/10/31 02:52:09;;;;;;;5.93;0.40;;;;;;;16.38;100.00;99372.72;5082675;28;20028;-67
2023/10/31 02:54:35;;;;;;;2.50;0.20;;;;;;;16.37;100.00;99380.81;5078506;28;20587;-66
2023/10/31 02:57:00;;;;;;;2.20;0.20;;;;;;;16.37;100.00;99372.94;5077937;28;20081;-66
2023/10/31 02:59:26;;;;;;;7.15;0.20;;;;;;;16.38;100.00;99374.56;5091185;28;20093;-66
2023/10/31 03:01:52;;;;;;;0.90;0.28;;;;;;;16.35;100.00;99360.00;5083354;28;20077;-67
2023/10/31 03:04:18;;;;;;;3.55;0.50;;;;;;;16.36;100.00;99366.06;5092849;28;20034;-66
2023/10/31 03:06:43;;;;;;;2.63;0.30;;;;;;;16.36;100.00;99368.69;5081350;28;20039;-67
2023/10/31 03:09:08;;;;;;;5.35;0.40;;;;;;;16.35;100.00;99374.97;5086364;28;20027;-66
2023/10/31 03:11:34;;;;;;;4.68;0.50;;;;;;;16.37;100.00;99354.53;5082075;28;20058;-66
2023/10/31 03:13:59;;;;;;;2.63;0.63;;;;;;;16.42;100.00;99360.78;5093499;28;20281;-66
2023/10/31 03:16:25;;;;;;;1.35;0.22;;;;;;;16.41;100.00;99358.38;5090309;28;20089;-66
2023/10/31 03:18:51;;;;;;;3.00;0.30;;;;;;;16.42;100.00;99352.09;5089965;28;21032;-66
2023/10/31 03:21:17;;;;;;;10.48;0.38;;;;;;;16.45;100.00;99349.06;5089123;28;20055;-66
2023/10/31 03:23:48;;;;;;;9.25;0.43;;;;;;;16.44;100.00;99350.88;5090410;28;20189;-66
2023/10/31 03:26:14;;;;;;;2.42;0.40;;;;;;;16.52;100.00;99349.81;5090682;28;20399;-66
2023/10/31 03:28:40;;;;;;;8.95;0.68;;;;;;;16.55;100.00;99338.88;5088817;28;20115;-66
2023/10/31 03:31:05;;;;;;;10.55;0.55;;;;;;;16.56;100.00;99338.66;5090094;28;21537;-66
2023/10/31 03:33:30;;;;;;;4.60;0.57;;;;;;;16.54;100.00;99353.06;5086928;28;20051;-66
2023/10/31 03:35:56;;;;;;;3.38;0.50;;;;;;;16.49;100.00;99351.06;5085505;28;20032;-66
2023/10/31 03:38:21;;;;;;;6.55;0.20;;;;;;;16.41;100.00;99353.91;5079349;28;20075;-66
2023/10/31 03:40:47;;;;;;;7.78;0.43;;;;;;;16.40;100.00;99351.50;5080481;28;20028;-66
2023/10/31 03:43:12;;;;;;;4.15;0.30;;;;;;;16.38;100.00;99354.34;5086658;28;20110;-66
2023/10/31 03:45:38;;;;;;;3.85;0.43;;;;;;;16.38;100.00;99354.34;5088784;28;20032;-66
2023/10/31 03:48:04;;;;;;;7.25;0.60;;;;;;;16.47;100.00;99352.28;5078290;28;20038;-66
2023/10/31 03:50:29;;;;;;;2.97;0.73;;;;;;;16.39;100.00;99350.69;5087721;28;20055;-66
2023/10/31 03:52:54;;;;;;;2.47;0.22;;;;;;;16.27;100.00;99354.97;5083904;28;20075;-66
2023/10/31 03:55:20;;;;;;;6.38;0.20;;;;;;;16.19;100.00;99356.00;5084189;28;20033;-66
2023/10/31 03:57:45;;;;;;;4.50;0.40;;;;;;;16.14;100.00;99341.88;5079046;28;20039;-66
2023/10/31 04:00:11;;;;;;;1.58;0.30;;;;;;;16.23;100.00;99341.44;5081103;28;20460;-66
2023/10/31 04:02:37;;;;;;;3.40;0.85;;;;;;;16.19;100.00;99340.25;5082642;28;20038;-66
2023/10/31 04:05:03;;;;;;;1.73;0.30;;;;;;;16.13;100.00;99335.81;5080490;28;20085;-66
2023/10/31 04:07:28;;;;;;;1.25;0.30;;;;;;;16.08;100.00;99338.25;5085270;28;20029;-66
2023/10/31 04:09:54;;;;;;;5.10;0.20;;;;;;;16.06;100.00;99335.06;5080714;28;20042;-67
2023/10/31 04:12:20;;;;;;;7.63;0.68;;;;;;;16.04;100.00;99334.47;5083281;28;20024;-66
2023/10/31 04:14:45;;;;;;;2.40;0.40;;;;;;;16.01;100.00;99334.88;5078512;28;20031;-66
2023/10/31 04:17:11;;;;;;;9.80;0.50;;;;;;;16.10;100.00;99336.22;5079545;28;20439;-67
2023/10/31 04:19:37;;;;;;;2.92;0.30;;;;;;;16.04;100.00;99336.28;5073553;28;20033;-67
2023/10/31 04:22:02;;;;;;;6.43;1.10;;;;;;;16.00;100.00;99335.88;5076286;28;20051;-67
2023/10/31 04:24:28;;;;;;;2.50;0.52;;;;;;;16.01;100.00;99332.25;5079351;28;20040;-66
2023/10/31 04:26:53;;;;;;;4.30;0.50;;;;;;;15.98;100.00;99322.16;5078610;28;20429;-66
2023/10/31 04:29:19;;;;;;;18.67;0.63;;;;;;;16.09;100.00;99321.47;5073072;28;20147;-66
2023/10/31 04:31:44;;;;;;;3.38;0.30;;;;;;;16.08;100.00;99314.59;5083370;28;20119;-66
2023/10/31 04:34:10;;;;;;;6.45;0.90;;;;;;;16.08;100.00;99311.97;5075062;28;20032;-66
2023/10/31 04:36:35;;;;;;;4.55;0.60;;;;;;;16.03;100.00;99309.19;5079429;28;20028;-66
2023/10/31 04:39:01;;;;;;;5.60;0.80;;;;;;;16.00;100.00;99308.81;5079703;28;20500;-67
2023/10/31 04:41:26;;;;;;;1.92;0.68;;;;;;;16.04;100.00;99305.56;5077043;28;20218;-67
2023/10/31 04:43:52;;;;;;;2.95;0.32;;;;;;;16.01;100.00;99300.72;5077711;28;22035;-66
2023/10/31 04:46:17;;;;;;;8.63;0.88;;;;;;;15.97;100.00;99293.47;5080282;28;20033;-66
2023/10/31 04:48:43;;;;;;;2.40;0.50;;;;;;;15.95;100.00;99285.78;5076999;28;20047;-66
2023/10/31 04:51:08;;;;;;;2.75;0.30;;;;;;;15.97;100.00;99283.75;5075154;28;20025;-66
2023/10/31 04:53:34;;;;;;;4.55;0.65;;;;;;;15.97;100.00;99283.75;5080771;28;20027;-66
2023/10/31 04:56:00;;;;;;;3.60;0.20;;;;;;;15.96;100.00;99276.88;5077281;28;20032;-66
2023/10/31 04:58:26;;;;;;;7.90;0.93;;;;;;;15.96;100.00;99268.19;5079648;28;20968;-66
2023/10/31 05:00:51;;;;;;;4.28;1.00;;;;;;;15.96;100.00;99266.38;5079835;28;20337;-66
2023/10/31 05:03:17;;;;;;;8.70;0.63;;;;;;;15.95;100.00;99259.50;5080407;28;20026;-71
2023/10/31 05:05:43;;;;;;;7.63;0.50;;;;;;;15.93;100.00;99251.03;5084269;28;20089;-66
2023/10/31 05:08:08;;;;;;;1.23;0.30;;;;;;;15.95;100.00;99253.44;5079497;28;20033;-68
2023/10/31 05:10:34;;;;;;;6.95;0.75;;;;;;;15.91;100.00;99248.63;5076454;28;20090;-68
2023/10/31 05:13:02;;;;;;;7.53;0.73;;;;;;;15.92;100.00;99244.16;5084527;28;20489;-68
2023/10/31 05:15:27;;;;;;;2.90;0.50;;;;;;;15.91;100.00;99238.09;5078130;28;20027;-68
2023/10/31 05:17:53;;;;;;;4.07;0.73;;;;;;;15.92;100.00;99239.72;5076255;28;20085;-68
2023/10/31 05:20:19;;;;;;;8.07;0.70;;;;;;;15.91;100.00;99232.84;5080020;28;20430;-68
2023/10/31 05:22:44;;;;;;;4.97;0.40;;;;;;;15.87;100.00;99229.03;5076396;28;20177;-68
2023/10/31 05:25:10;;;;;;;1.55;0.40;;;;;;;15.86;100.00;99229.25;5076677;28;20065;-68
2023/10/31 05:27:35;;;;;;;6.38;0.57;;;;;;;15.87;100.00;99238.72;5081861;28;20037;-68
2023/10/31 05:30:01;;;;;;;1.05;0.40;;;;;;;15.88;100.00;99227.22;5073883;28;20081;-68
2023/10/31 05:32:26;;;;;;;7.22;0.52;;;;;;;15.88;100.00;99216.72;5077156;28;20032;-68
2023/10/31 05:34:51;;;;;;;2.50;0.38;;;;;;;15.89;100.00;99213.06;5081824;28;20036;-68
2023/10/31 05:37:17;;;;;;;5.25;0.60;;;;;;;15.88;100.00;99209.63;5075909;28;20137;-68
2023/10/31 05:39:42;;;;;;;1.67;0.40;;;;;;;15.86;100.00;99209.03;5079508;28;20131;-68
2023/10/31 05:42:08;;;;;;;5.75;0.98;;;;;;;15.86;100.00;99209.03;5082624;28;20090;-68
2023/10/31 05:44:33;;;;;;;4.13;0.80;;;;;;;15.85;100.00;99217.13;5074450;28;20031;-68
2023/10/31 05:46:59;;;;;;;1.38;0.50;;;;;;;15.86;100.00;99226.63;5083928;28;20031;-65
2023/10/31 05:49:24;;;;;;;4.82;0.70;;;;;;;15.84;100.00;99226.00;5079308;28;20028;-69
2023/10/31 05:51:53;;;;;;;4.18;0.70;;;;;;;15.84;100.00;99228.63;5075175;28;20477;-66
2023/10/31 05:54:18;;;;;;;5.15;0.80;;;;;;;15.82;100.00;99220.16;5077373;28;20454;-66
2023/10/31 05:56:44;;;;;;;3.00;0.50;;;;;;;15.83;100.00;99214.69;5079644;28;20032;-66
2023/10/31 05:59:11;;;;;;;3.83;0.68;;;;;;;15.82;100.00;99207.03;5081957;28;20031;-66
2023/10/31 06:01:36;;;;;;;3.70;0.68;;;;;;;15.86;100.00;99209.03;5077704;28;20047;-66
2023/10/31 06:04:02;;;;;;;3.88;0.88;;;;;;;15.89;100.00;99210.44;5078798;28;20818;-65
2023/10/31 06:06:27;;;;;;;1.98;0.50;;;;;;;15.88;100.00;99211.44;5078514;28;20111;-66
2023/10/31 06:08:53;;;;;;;2.25;0.45;;;;;;;15.89;100.00;99210.44;5084448;28;20371;-66
2023/10/31 06:11:18;;;;;;;4.88;0.60;;;;;;;15.89;100.00;99219.13;5093040;28;20032;-66
2023/10/31 06:13:44;;;;;;;6.57;0.77;;;;;;;15.91;100.00;99203.16;5100947;28;20040;-66
2023/10/31 06:16:10;;;;;;;2.70;0.70;;;;;;;15.93;100.00;99188.00;5106353;27;20027;-66
2023/10/31 06:18:39;;;;;;;5.50;0.38;;;;;;;15.93;100.00;99190.63;5097572;28;20074;-66
2023/10/31 06:21:04;;;;;;;3.33;0.40;;;;;;;15.95;100.00;99201.72;5106484;28;20034;-66
2023/10/31 06:23:29;;;;;;;2.78;0.40;;;;;;;15.99;100.00;99200.28;5104454;28;20031;-65
2023/10/31 06:25:55;;;;;;;5.97;0.40;;;;;;;16.07;100.00;99231.56;5099573;28;20120;-66
2023/10/31 06:28:20;;;;;;;0.85;0.20;;;;;;;16.12;100.00;99223.84;5099838;28;20036;-65
2023/10/31 06:30:46;;;;;;;1.95;0.28;;;;;;;16.06;100.00;99237.03;5089904;28;20054;-65
2023/10/31 06:33:11;;;;;;;2.58;0.20;;;;;;;15.91;100.00;99248.63;5090250;28;20057;-65
2023/10/31 06:35:37;;;;;;;2.17;0.10;;;;;;;15.78;100.00;99251.28;5101390;28;20110;-65
2023/10/31 06:38:03;;;;;;;0.82;0.10;;;;;;;15.73;100.00;99258.97;5102779;28;20090;-64
2023/10/31 06:40:28;;;;;;;0.38;0.10;;;;;;;15.64;100.00;99277.78;5104975;28;20031;-64
2023/10/31 06:42:53;;;;;;;1.08;0.10;;;;;;;15.56;100.00;99298.00;5102744;28;20089;-64
2023/10/31 06:45:19;;;;;;;0.70;0.10;;;;;;;15.43;100.00;99290.13;5105937;28;20020;-64
2023/10/31 06:47:44;;;;;;;0.22;0.08;;;;;;;15.29;100.00;99283.28;5096796;28;20065;-64
2023/10/31 06:50:10;;;;;;;0.10;0.00;;;;;;;15.19;100.00;99275.81;5091020;28;20131;-65
2023/10/31 06:52:36;;;;;;;0.85;0.10;;;;;;;15.15;100.00;99263.28;5099687;28;20130;-65
2023/10/31 06:55:01;;;;;;;0.65;0.00;;;;;;;15.09;100.00;99203.78;5098434;28;20369;-67
2023/10/31 06:57:27;;;;;;;0.38;0.05;;;;;;;14.89;100.00;99153.97;5099220;28;20476;-68
2023/10/31 06:59:52;;;;;;;1.42;0.10;;;;;;;14.76;100.00;99182.81;5092480;28;20070;-68
2023/10/31 07:02:18;;;;;;;2.40;0.10;;;;;;;14.78;100.00;99184.25;5095698;28;20424;-67
2023/10/31 07:04:43;;;;;;;0.10;0.00;;;;;;;14.82;100.00;99182.81;5091791;28;20892;-67
2023/10/31 07:07:09;;;;;;;1.27;0.10;;;;;;;14.72;100.00;99153.59;5097007;28;20167;-67
2023/10/31 07:09:34;;;;;;;1.67;0.08;;;;;;;14.73;100.00;99170.94;5098453;27;20396;-67
2023/10/31 07:12:00;;;;;;;1.75;0.10;;;;;;;14.76;100.00;99178.38;5096135;28;20051;-68
2023/10/31 07:14:25;;;;;;;0.65;0.08;;;;;;;14.83;100.00;99199.38;5097755;28;20031;-67
2023/10/31 07:16:51;;;;;;;0.45;0.20;;;;;;;14.84;100.00;99216.72;5096519;28;20039;-67
2023/10/31 07:19:16;;;;;;;0.40;0.05;;;;;;;14.87;100.00;99232.03;5098898;28;20027;-68
2023/10/31 07:21:41;;;;;;;1.55;0.32;;;;;;;14.84;100.00;99262.09;5094187;28;20023;-68
2023/10/31 07:24:08;;;;;;;3.13;0.30;;;;;;;14.81;100.00;99272.19;5087341;28;20052;-68
2023/10/31 07:26:37;;;;;;;4.20;0.10;;;;;;;14.71;100.00;99220.13;5091591;28;20027;-67
2023/10/31 07:29:03;;;;;;;1.48;0.40;;;;;;;14.75;100.00;99252.00;5089704;28;20077;-67
2023/10/31 07:31:28;;;;;;;1.58;0.10;;;;;;;14.78;100.00;99246.34;5089244;28;20043;-68
2023/10/31 07:33:54;;;;;;;0.13;0.00;;;;;;;14.69;100.00;99239.69;5092983;28;20066;-68
2023/10/31 07:36:19;;;;;;;0.95;0.10;;;;;;;14.66;100.00;99242.72;5092327;28;20429;-67
2023/10/31 07:38:45;;;;;;;1.55;0.10;;;;;;;14.64;100.00;99234.28;5090750;28;20075;-67
2023/10/31 07:41:10;;;;;;;0.98;0.10;;;;;;;14.69;100.00;99258.84;5090958;28;20081;-68
2023/10/31 07:43:35;;;;;;;0.40;0.00;;;;;;;14.76;100.00;99275.41;5091666;28;20036;-67
2023/10/31 07:46:01;;;;;;;0.88;0.10;;;;;;;14.80;100.00;99275.81;5091966;28;20447;-67
2023/10/31 07:48:26;;;;;;;3.45;0.10;;;;;;;14.79;100.00;99280.25;5092317;28;20036;-67
2023/10/31 07:50:52;;;;;;;2.75;0.10;;;;;;;14.79;100.00;99280.25;5092826;28;20341;-67
2023/10/31 07:53:17;;;;;;;3.75;0.10;;;;;;;14.72;100.00;99289.91;5089020;28;20147;-67
2023/10/31 07:55:43;;;;;;;0.40;0.10;;;;;;;14.68;100.00;99303.63;5080608;28;20023;-67
2023/10/31 07:58:09;;;;;;;2.33;0.10;;;;;;;14.77;100.00;99316.34;5089258;28;20032;-67
2023/10/31 08:00:35;;;;;;;0.85;0.10;;;;;;;14.79;100.00;99318.75;5087744;28;20075;-67
2023/10/31 08:03:01;;;;;;;2.83;0.20;;;;;;;14.76;100.00;99334.88;5090291;28;20059;-67
2023/10/31 08:05:27;;;;;;;2.17;0.00;;;;;;;14.69;100.00;99337.50;5087710;28;20058;-67
2023/10/31 08:07:52;;;;;;;0.10;0.00;;;;;;;14.70;100.00;99335.69;5082177;28;20036;-67
2023/10/31 08:10:18;;;;;;;3.95;0.10;;;;;;;14.71;100.00;99329.44;5088625;28;20544;-67
2023/10/31 08:12:43;;;;;;;1.13;0.10;;;;;;;14.60;100.00;99318.53;5090979;28;20054;-67
2023/10/31 08:15:09;;;;;;;0.93;0.10;;;;;;;14.58;100.00;99314.50;5099868;28;20055;-67
2023/10/31 08:17:35;;;;;;;2.38;0.30;;;;;;;14.58;100.00;99314.50;5085518;28;20104;-67
2023/10/31 08:20:00;;;;;;;2.83;0.35;;;;;;;14.67;100.00;99321.16;5090700;28;20480;-67
2023/10/31 08:22:26;;;;;;;3.72;0.20;;;;;;;14.67;100.00;99315.91;5088667;28;20534;-68
2023/10/31 08:24:51;;;;;;;5.70;0.25;;;;;;;14.60;100.00;99302.81;5107348;28;20023;-68
2023/10/31 08:27:16;;;;;;;0.93;0.10;;;;;;;14.65;100.00;99325.00;5094707;28;20043;-68
2023/10/31 08:29:42;;;;;;;2.55;0.30;;;;;;;14.69;100.00;99315.72;5092366;28;20028;-68
2023/10/31 08:32:07;;;;;;;1.52;0.20;;;;;;;14.73;100.00;99316.94;5097771;28;20031;-67
2023/10/31 08:34:33;;;;;;;1.73;0.10;;;;;;;14.75;100.00;99326.22;5077506;28;20024;-67
2023/10/31 08:36:59;;;;;;;4.88;0.38;;;;;;;14.81;100.00;99343.78;5094997;28;20550;-67
2023/10/31 08:39:24;;;;;;;1.92;0.10;;;;;;;14.80;100.00;99341.34;5100326;28;20123;-67
2023/10/31 08:41:58;;;;;;;5.25;0.25;;;;;;;14.72;100.00;99352.84;5090626;28;20127;-68
2023/10/31 08:44:23;;;;;;;2.00;0.10;;;;;;;14.70;100.00;99360.09;5099077;28;20106;-68
2023/10/31 08:46:49;;;;;;;0.52;0.00;;;;;;;14.67;100.00;99360.47;5094307;28;20148;-68
2023/10/31 08:49:15;;;;;;;1.00;0.10;;;;;;;14.61;100.00;99348.19;5099184;28;20472;-69
2023/10/31 08:51:41;;;;;;;5.80;0.10;;;;;;;14.58;100.00;99349.38;5099528;28;20488;-69
2023/10/31 08:54:08;;;;;;;1.48;0.10;;;;;;;14.62;100.00;99362.91;5082779;28;20035;-67
2023/10/31 08:56:33;;;;;;;0.80;0.10;;;;;;;14.64;100.00;99371.38;5093941;28;20544;-68
2023/10/31 08:58:59;;;;;;;3.17;0.10;;;;;;;14.63;100.00;99372.41;5095896;28;20036;-69
2023/10/31 09:01:24;;;;;;;3.78;0.10;;;;;;;14.65;100.00;99367.72;5101788;28;20119;-69
2023/10/31 09:03:50;;;;;;;1.15;0.10;;;;;;;14.65;100.00;99378.22;5093692;28;20133;-70
2023/10/31 09:06:15;;;;;;;4.10;0.20;;;;;;;14.67;100.00;99378.81;5090942;28;20051;-69
2023/10/31 09:08:41;;;;;;;0.30;0.10;;;;;;;14.71;100.00;99366.13;5094776;28;20472;-68
2023/10/31 09:11:06;;;;;;;0.22;0.00;;;;;;;14.71;100.00;99364.31;5090082;28;20028;-68
2023/10/31 09:13:32;;;;;;;1.02;0.00;;;;;;;14.77;100.00;99366.16;5089936;28;20431;-69
2023/10/31 09:15:59;;;;;;;0.32;0.00;;;;;;;14.80;100.00;99370.19;5095161;28;20096;-69
2023/10/31 09:18:24;;;;;;;4.38;0.20;;;;;;;14.85;100.00;99365.97;5097096;28;20027;-69
2023/10/31 09:20:50;;;;;;;0.55;0.00;;;;;;;14.88;100.00;99349.03;5092489;28;20032;-69
2023/10/31 09:23:17;;;;;;;0.73;0.00;;;;;;;14.88;100.00;99347.22;5096181;28;20050;-69
2023/10/31 09:25:45;;;;;;;1.05;0.10;;;;;;;14.88;100.00;99349.03;5093240;28;20510;-69
2023/10/31 09:28:11;;;;;;;1.38;0.10;;;;;;;14.85;100.00;99337.13;5095299;28;20170;-70
2023/10/31 09:30:36;;;;;;;0.63;0.10;;;;;;;14.86;100.00;99351.06;5080966;28;20139;-70
2023/10/31 09:33:02;;;;;;;0.65;0.10;;;;;;;14.84;100.00;99361.75;5096374;28;20082;-70
2023/10/31 09:35:27;;;;;;;1.75;0.10;;;;;;;14.83;100.00;99362.75;5097095;28;20027;-70
2023/10/31 09:37:53;;;;;;;3.20;0.10;;;;;;;14.84;100.00;99358.31;5094788;28;20048;-70
2023/10/31 09:40:20;;;;;;;0.60;0.03;;;;;;;14.82;100.00;99366.38;5094526;28;20028;-70
2023/10/31 09:42:46;;;;;;;0.98;0.10;;;;;;;14.71;100.00;99348.59;5089396;28;20111;-68
2023/10/31 09:45:12;;;;;;;1.35;0.10;;;;;;;14.73;100.00;99337.91;5092438;28;20155;-67
2023/10/31 09:47:38;;;;;;;1.17;0.10;;;;;;;14.71;100.00;99319.75;5093682;28;20046;-69
2023/10/31 09:50:04;;;;;;;2.90;0.30;;;;;;;14.71;100.00;99317.13;5092383;28;20388;-68
2023/10/31 09:52:29;;;;;;;1.77;0.10;;;;;;;14.76;100.00;99325.22;5094784;28;20105;-68
2023/10/31 09:54:56;;;;;;;0.10;0.00;;;;;;;14.88;100.00;99336.75;5095525;28;20156;-68
2023/10/31 09:57:22;;;;;;;2.65;0.08;;;;;;;15.02;100.00;99339.38;5097327;28;20503;-68
2023/10/31 09:59:48;;;;;;;2.72;0.05;;;;;;;15.02;100.00;99336.75;5089343;28;20054;-69
2023/10/31 10:02:13;;;;;;;0.95;0.00;;;;;;;15.08;100.00;99335.97;5086293;28;20035;-68
2023/10/31 10:04:39;;;;;;;1.27;0.00;;;;;;;15.08;100.00;99321.03;5091287;28;20024;-69
2023/10/31 10:07:05;;;;;;;1.38;0.03;;;;;;;15.09;100.00;99316.59;5090685;28;20039;-69
2023/10/31 10:09:32;;;;;;;0.40;0.00;;;;;;;15.07;100.00;99310.75;5094257;28;20035;-70
2023/10/31 10:12:01;;;;;;;2.17;0.05;;;;;;;15.05;100.00;99312.75;5095441;28;20032;-69
2023/10/31 10:14:33;;;;;;;0.32;0.00;;;;;;;15.03;100.00;99326.06;5096087;28;20131;-69
2023/10/31 10:16:59;;;;;;;1.52;0.00;;;;;;;15.05;100.00;99331.13;5091845;28;20357;-68
2023/10/31 10:19:25;;;;;;;0.30;0.00;;;;;;;15.07;100.00;99344.84;5095915;28;20028;-67
2023/10/31 10:21:55;;;;;;;1.27;0.00;;;;;;;15.05;100.00;99347.66;5091141;28;20447;-65
2023/10/31 10:24:22;;;;;;;1.52;0.03;;;;;;;14.97;100.00;99357.53;5088564;28;20088;-66
2023/10/31 10:26:48;;;;;;;0.40;0.08;;;;;;;14.90;100.00;99366.19;5084996;28;20038;-65
2023/10/31 10:29:15;;;;;;;0.52;0.32;;;;;;;14.94;100.00;99362.16;5091378;28;20558;-66
2023/10/31 10:31:40;;;;;;;2.58;0.10;;;;;;;14.97;100.00;99368.03;5091235;28;20032;-65
2023/10/31 10:34:07;;;;;;;6.47;0.10;;;;;;;15.01;100.00;99367.44;5094707;28;20396;-66
2023/10/31 10:36:33;;;;;;;0.82;0.00;;;;;;;15.11;100.00;99364.41;5092395;28;20518;-66
2023/10/31 10:38:59;;;;;;;2.60;0.10;;;;;;;15.15;100.00;99369.03;5090816;28;20079;-66
2023/10/31 10:41:26;;;;;;;1.85;0.10;;;;;;;15.16;100.00;99364.59;5093055;28;20079;-65
2023/10/31 10:43:56;;;;;;;1.55;0.00;;;;;;;15.23;100.00;99355.72;5095886;28;20023;-66
2023/10/31 10:46:25;;;;;;;1.10;0.05;;;;;;;15.28;100.00;99368.25;5092576;28;20032;-66
2023/10/31 10:48:58;;;;;;;0.50;0.00;;;;;;;15.29;100.00;99369.88;5095288;28;20119;-66
2023/10/31 10:52:02;;;;;;;2.05;0.00;;;;;;;15.29;100.00;99380.34;5086647;28;20499;-65
2023/10/31 10:54:46;;;;;;;0.63;0.10;;;;;;;15.30;100.00;99374.09;5079055;28;20039;-68
2023/10/31 10:57:28;;;;;;;0.77;0.10;;;;;;;15.34;100.00;99374.50;5098694;28;20032;-66
2023/10/31 10:59:58;;;;;;;1.48;0.15;;;;;;;15.37;100.00;99376.72;5099698;28;20066;-65
2023/10/31 11:02:24;;;;;;;0.35;0.10;;;;;;;15.42;100.00;99377.75;5093990;28;20485;-65
2023/10/31 11:04:51;;;;;;;2.10;0.10;;;;;;;15.38;100.00;99373.91;5093412;28;20035;-66
2023/10/31 11:07:17;;;;;;;2.10;0.00;;;;;;;15.43;100.00;99381.19;5095219;28;20032;-66
2023/10/31 11:09:46;;;;;;;0.30;0.10;;;;;;;15.44;100.00;99378.34;5091411;28;20504;-65
2023/10/31 11:12:12;;;;;;;1.70;0.10;;;;;;;15.39;100.00;99372.09;5086377;28;20032;-66
2023/10/31 11:14:39;;;;;;;0.47;0.00;;;;;;;15.38;100.00;99367.84;5091225;28;20123;-66
2023/10/31 11:17:34;;;;;;;0.10;0.00;;;;;;;15.32;100.00;99374.72;5090871;28;20032;-65
2023/10/31 11:20:00;;;;;;;1.48;0.00;;;;;;;15.30;100.00;99370.66;5077190;28;20131;-65